Pagrindinis puslapis
METAR-TAF:

METAR-TAF

Oro uostai :

Bagdadas, Irakas

platuma: 33-15-45N, ilguma: 44-14-04E, Aukštis: 35 m

Dabartinis oras

Ataskaita buvo paskelbta 1 valandą ir 11 minutes, ne 12:00 UTC
Vėjas 7 kt iš Pietų/Pietvakarių, svyruoja nuo Pietų/Pietryčių ir Vakarų
Temperatūra 37°C
Drėgmė 15%
Slėgis 1005 hPa
Matomumas 10 km arba daugiau
Išsisklaidę debesys ne aukštis 3000 ft

METAR: ORBI 201200Z 20007KT 150V260 9999 SCT030 37/06 Q1005 NOSIG

Laikas: 16:11 (13:11 UTC)

Prognozė

Ataskaita buvo paskelbta 3 valandos ir 11 minutes, ne 10:00 UTC
Prognozė galioja nuo 20 metu 12 UTC su 21 metu 12 UTC
Vėjas 10 kt iš Pietų
Matomumas: 8000 m
Išsisklaidę debesys ne aukštis 3000 ft
Išsisklaidę debesys ne aukštis 6000 ft
Tikimybė 30% :
Laikinai
nuo 20 metu 19 UTC su 21 metu 05 UTC
Vėjas 15 kt iš Rytų/Pietryčių
Matomumas: 5000 m
Mažai debesys ne aukštis 2500 ft, Liūtiniai kamuoliniai debesys.
perkūnija, lietus,

TAF: ORBI 201000Z 2012/2112 18010KT 8000 SCT030 SCT060 PROB30 TEMPO 2019/2105 12015KT 5000 TSRA FEW025CB

Orai ataskaitas ir orų prognozės (METAR, TAF).

turimą stotys yra geltonos ir raudonos taškus žemėlapyje.

Perkelti pele per norėdami pamatyti stoties vardą.

Tada spustelėkite, norėdami matyti oro stebėjimo ir prognozės.

Norėdami pakeisti žemėlapį: spustelėkite ant žalios mygtukų su juodo kryžiaus žemyn,; žalią mygtuką su brūkšneliu, jei norite nutolinti; arba žalių rodyklių gretimoms žemėlapius.


METAR-TAF: